createdAt,value
2023-01-15T00:00:24.477Z,96414.69
2023-01-15T00:02:54.905Z,96414.94
2023-01-15T00:05:25.272Z,96412.44
2023-01-15T00:07:55.562Z,96430.25
2023-01-15T00:10:25.870Z,96412.94
2023-01-15T00:12:56.212Z,96410.41
2023-01-15T00:15:29.192Z,96401.91
2023-01-15T00:17:59.507Z,96397.84
2023-01-15T00:20:29.900Z,96383.03
2023-01-15T00:23:00.240Z,96389.06
2023-01-15T00:25:42.955Z,96384.28
2023-01-15T00:28:16.612Z,96377.75
2023-01-15T00:30:52.138Z,96400.13
2023-01-15T00:33:22.459Z,96356.16
2023-01-15T00:35:52.830Z,96357.41
2023-01-15T00:38:23.195Z,96367.50
2023-01-15T00:40:53.496Z,96361.69
2023-01-15T00:43:24.138Z,96350.16
2023-01-15T00:45:57.083Z,96355.41
2023-01-15T00:48:27.444Z,96373.25
2023-01-15T00:50:57.944Z,96355.41
2023-01-15T00:53:28.470Z,96335.56
2023-01-15T00:55:59.007Z,96332.28
2023-01-15T00:58:32.125Z,96319.22
2023-01-15T01:01:05.242Z,96293.59
2023-01-15T01:03:35.686Z,96312.94
2023-01-15T01:06:08.257Z,96294.81
2023-01-15T01:08:38.657Z,96304.13
2023-01-15T01:11:12.686Z,96311.41
2023-01-15T01:13:43.176Z,96311.69
2023-01-15T01:16:35.794Z,96302.38
2023-01-15T01:19:09.362Z,96296.56
2023-01-15T01:21:42.314Z,96309.91
2023-01-15T01:24:15.183Z,96304.38
2023-01-15T01:26:46.794Z,96293.28
2023-01-15T01:29:19.425Z,96293.56
2023-01-15T01:31:52.581Z,96295.31
2023-01-15T01:34:22.941Z,96306.88
2023-01-15T01:36:53.280Z,96289.75
2023-01-15T01:39:23.811Z,96280.69
2023-01-15T01:41:54.184Z,96278.44
2023-01-15T01:45:07.954Z,96263.56
2023-01-15T01:47:41.110Z,96264.84
2023-01-15T01:50:15.507Z,96274.63
2023-01-15T01:52:51.260Z,96254.72
2023-01-15T01:55:26.195Z,96282.13
2023-01-15T01:58:02.431Z,96263.78
2023-01-15T02:00:34.544Z,96273.84
2023-01-15T02:03:11.162Z,96248.44
2023-01-15T02:05:45.480Z,96256.69
2023-01-15T02:08:15.987Z,96245.63
2023-01-15T02:10:46.718Z,96242.09
2023-01-15T02:13:24.329Z,96247.13
2023-01-15T02:16:05.187Z,96242.63
2023-01-15T02:18:46.894Z,96253.16
2023-01-15T02:21:27.839Z,96231.00
2023-01-15T02:24:14.132Z,96223.47
2023-01-15T02:27:17.752Z,96215.38
2023-01-15T02:29:59.835Z,96208.09
2023-01-15T02:32:41.833Z,96202.00
2023-01-15T02:35:20.122Z,96199.78
2023-01-15T02:37:57.255Z,96207.31
2023-01-15T02:40:30.296Z,96198.25
2023-01-15T02:43:03.667Z,96199.53
2023-01-15T02:45:39.833Z,96201.28
2023-01-15T02:48:18.155Z,96190.72
2023-01-15T02:50:55.590Z,96201.78
2023-01-15T02:53:31.214Z,96194.03
2023-01-15T02:56:10.910Z,96200.81
2023-01-15T02:58:57.348Z,96205.81
2023-01-15T03:01:33.272Z,96210.56
2023-01-15T03:04:10.009Z,96213.38
2023-01-15T03:06:47.564Z,96195.00
2023-01-15T03:09:20.182Z,96192.22
2023-01-15T03:11:58.317Z,96187.22
2023-01-15T03:14:39.618Z,96173.63
2023-01-15T03:17:19.473Z,96168.63
2023-01-15T03:19:55.354Z,96171.34
2023-01-15T03:22:32.131Z,96205.28
2023-01-15T03:25:07.894Z,96155.44
2023-01-15T03:27:44.877Z,96168.00
2023-01-15T03:30:23.283Z,96156.38
2023-01-15T03:32:57.213Z,96156.63
2023-01-15T03:35:49.815Z,96163.47
2023-01-15T03:38:37.116Z,96165.47
2023-01-15T03:41:20.224Z,96155.16
2023-01-15T03:44:05.574Z,96151.59
2023-01-15T03:46:57.481Z,96165.94
2023-01-15T03:49:44.182Z,96146.06
2023-01-15T03:52:35.017Z,96142.78
2023-01-15T03:55:15.371Z,96132.50
2023-01-15T03:57:56.580Z,96133.72
2023-01-15T04:00:31.185Z,96128.94
2023-01-15T04:03:08.170Z,96131.16
2023-01-15T04:05:41.011Z,96124.91
2023-01-15T04:08:12.772Z,96134.72
2023-01-15T04:10:55.932Z,96125.88
2023-01-15T04:13:31.373Z,96123.84
2023-01-15T04:16:02.614Z,96127.63
2023-01-15T04:18:36.603Z,96120.34
2023-01-15T04:21:07.441Z,96108.00
2023-01-15T04:23:38.358Z,96115.00
2023-01-15T04:26:09.165Z,96099.44
2023-01-15T04:28:39.572Z,96103.72
2023-01-15T04:31:10.454Z,96097.91
2023-01-15T04:33:43.979Z,96094.09
2023-01-15T04:36:14.743Z,96118.00
2023-01-15T04:38:45.232Z,96096.13
2023-01-15T04:41:27.964Z,96097.13
2023-01-15T04:44:19.557Z,96093.31
2023-01-15T04:46:50.649Z,96087.75
2023-01-15T04:49:23.301Z,96099.88
2023-01-15T04:51:53.660Z,96095.16
2023-01-15T04:54:25.069Z,96073.00
2023-01-15T04:56:57.382Z,96080.50
2023-01-15T04:59:30.502Z,96089.56
2023-01-15T05:02:06.330Z,96082.31
2023-01-15T05:04:40.004Z,96073.91
2023-01-15T05:07:10.349Z,96082.50
2023-01-15T05:09:41.026Z,96077.72
2023-01-15T05:12:12.037Z,96073.50
2023-01-15T05:14:42.154Z,96076.03
2023-01-15T05:17:12.507Z,96064.44
2023-01-15T05:19:45.447Z,96073.44
2023-01-15T05:22:15.906Z,96078.25
2023-01-15T05:24:46.274Z,96066.19
2023-01-15T05:27:16.752Z,96069.19
2023-01-15T05:29:48.059Z,96062.38
2023-01-15T05:32:18.485Z,96064.38
2023-01-15T05:34:51.562Z,96076.78
2023-01-15T05:37:21.912Z,96063.28
2023-01-15T05:39:52.327Z,96075.66
2023-01-15T05:42:22.679Z,96067.06
2023-01-15T05:44:53.157Z,96077.34
2023-01-15T05:47:23.852Z,96064.03
2023-01-15T05:49:56.875Z,96059.25
2023-01-15T05:52:27.296Z,96064.28
2023-01-15T05:54:57.700Z,96062.78
2023-01-15T05:57:28.136Z,96089.69
2023-01-15T05:59:58.567Z,96122.34
2023-01-15T06:02:28.949Z,96108.41
2023-01-15T06:05:01.917Z,96120.13
2023-01-15T06:07:32.326Z,96127.75
2023-01-15T06:10:02.738Z,96128.59
2023-01-15T06:12:33.158Z,96133.16
2023-01-15T06:15:03.588Z,96142.78
2023-01-15T06:17:33.949Z,96150.31
2023-01-15T06:20:09.444Z,96169.19
2023-01-15T06:22:39.933Z,96175.28
2023-01-15T06:25:11.047Z,96180.75
2023-01-15T06:27:44.562Z,96191.31
2023-01-15T06:30:16.053Z,96184.56
2023-01-15T06:32:46.409Z,96186.28
2023-01-15T06:35:19.391Z,96191.31
2023-01-15T06:37:49.689Z,96200.09
2023-01-15T06:40:21.729Z,96189.81
2023-01-15T06:43:04.475Z,96183.31
2023-01-15T06:45:53.506Z,96188.06
2023-01-15T06:48:23.911Z,96184.81
2023-01-15T06:50:57.098Z,96191.81
2023-01-15T06:53:27.398Z,96184.28
2023-01-15T06:55:57.737Z,96191.59
2023-01-15T06:58:28.089Z,96196.34
2023-01-15T07:00:58.534Z,96206.88
2023-01-15T07:03:28.989Z,96214.44
2023-01-15T07:06:01.933Z,96220.47
2023-01-15T07:08:32.204Z,96218.19
2023-01-15T07:11:07.091Z,96212.94
2023-01-15T07:13:37.761Z,96229.72
2023-01-15T07:16:27.038Z,96226.72
2023-01-15T07:18:58.653Z,96235.25
2023-01-15T07:21:31.898Z,96245.06
2023-01-15T07:24:03.208Z,96238.28
2023-01-15T07:26:33.556Z,96254.59
2023-01-15T07:29:03.846Z,96270.16
2023-01-15T07:31:34.181Z,96281.72
2023-01-15T07:34:04.524Z,96285.44
2023-01-15T07:36:37.471Z,96306.75
2023-01-15T07:39:08.460Z,96317.00
2023-01-15T07:41:51.336Z,96308.97
2023-01-15T07:44:34.144Z,96317.97
2023-01-15T07:47:17.485Z,96325.97
2023-01-15T07:49:48.819Z,96332.50
2023-01-15T07:52:23.926Z,96339.69
2023-01-15T07:54:54.354Z,96346.19
2023-01-15T07:57:25.611Z,96353.72
2023-01-15T07:59:55.907Z,96359.75
2023-01-15T08:02:26.370Z,96368.50
2023-01-15T08:04:56.770Z,96370.53
2023-01-15T08:07:29.856Z,96348.97
2023-01-15T08:10:00.182Z,96343.47
2023-01-15T08:12:48.682Z,96348.50
2023-01-15T08:15:19.354Z,96329.44
2023-01-15T08:17:51.600Z,96337.47
2023-01-15T08:20:24.887Z,96339.00
2023-01-15T08:22:57.772Z,96346.78
2023-01-15T08:25:28.954Z,96352.50
2023-01-15T08:28:03.032Z,96361.78
2023-01-15T08:30:33.722Z,96357.50
2023-01-15T08:33:05.329Z,96364.47
2023-01-15T08:35:35.753Z,96375.97
2023-01-15T08:38:12.574Z,96378.44
2023-01-15T08:40:58.091Z,96385.22
2023-01-15T08:43:28.538Z,96386.41
2023-01-15T08:46:00.957Z,96392.91
2023-01-15T08:48:33.705Z,96390.38
2023-01-15T08:51:07.921Z,96387.91
2023-01-15T08:53:41.919Z,96402.72
2023-01-15T08:56:16.681Z,96399.50
2023-01-15T08:58:48.875Z,96403.72
2023-01-15T09:01:19.367Z,96418.41
2023-01-15T09:03:49.861Z,96411.34
2023-01-15T09:06:20.212Z,96408.66
2023-01-15T09:08:53.308Z,96416.22
2023-01-15T09:11:23.919Z,96420.63
2023-01-15T09:13:54.562Z,96416.31
2023-01-15T09:16:26.835Z,96412.59
2023-01-15T09:18:57.370Z,96412.38
2023-01-15T09:21:27.865Z,96412.84
2023-01-15T09:24:01.204Z,96422.34
2023-01-15T09:26:35.265Z,96422.56
2023-01-15T09:29:08.933Z,96421.81
2023-01-15T09:31:39.280Z,96421.44
2023-01-15T09:34:10.910Z,96433.38
2023-01-15T09:36:41.565Z,96427.66
2023-01-15T09:39:14.765Z,96435.75
2023-01-15T09:42:16.126Z,96435.53
2023-01-15T09:45:10.016Z,96432.25
2023-01-15T09:47:44.993Z,96428.66
2023-01-15T09:50:28.399Z,96421.78
2023-01-15T09:53:35.335Z,96430.09
2023-01-15T09:56:09.173Z,96436.97
2023-01-15T09:58:42.444Z,96440.38
2023-01-15T10:01:19.025Z,96450.19
2023-01-15T10:03:56.080Z,96449.34
2023-01-15T10:06:30.332Z,96449.38
2023-01-15T10:09:09.059Z,96454.84
2023-01-15T10:11:58.805Z,96454.84
2023-01-15T10:14:40.579Z,96470.13
2023-01-15T10:17:28.977Z,96471.47
2023-01-15T10:20:00.989Z,96477.19
2023-01-15T10:22:59.992Z,96486.66
2023-01-15T10:25:40.142Z,96481.22
2023-01-15T10:28:22.661Z,96496.03
2023-01-15T10:30:57.939Z,96509.31
2023-01-15T10:33:57.229Z,96497.00
2023-01-15T10:36:36.671Z,96501.59
2023-01-15T10:39:21.245Z,96495.72
2023-01-15T10:42:11.590Z,96500.81
2023-01-15T10:44:58.172Z,96492.00
2023-01-15T10:47:36.842Z,96490.00
2023-01-15T10:50:18.698Z,96488.41
2023-01-15T10:52:53.872Z,96498.81
2023-01-15T10:55:31.521Z,96493.69
2023-01-15T10:58:10.979Z,96501.88
2023-01-15T11:00:45.588Z,96490.03
2023-01-15T11:03:19.868Z,96489.00
2023-01-15T11:05:50.719Z,96497.34
2023-01-15T11:11:41.173Z,96481.59
2023-01-15T11:14:38.904Z,96477.69
2023-01-15T11:17:30.209Z,96473.25
2023-01-15T11:20:00.408Z,96461.81
2023-01-15T11:22:31.097Z,96478.25
2023-01-15T11:25:04.265Z,96480.03
2023-01-15T11:27:37.680Z,96483.41
2023-01-15T11:30:11.043Z,96494.09
2023-01-15T11:32:43.994Z,96500.16
2023-01-15T11:35:24.046Z,96492.44
2023-01-15T11:38:05.239Z,96493.81
2023-01-15T11:40:35.597Z,96484.44
2023-01-15T11:43:18.361Z,96490.31
2023-01-15T11:46:06.552Z,96500.47
2023-01-15T11:49:03.323Z,96502.38
2023-01-15T11:51:41.604Z,96497.78
2023-01-15T11:54:16.605Z,96489.25
2023-01-15T11:56:49.840Z,96492.81
2023-01-15T11:59:22.498Z,96486.63
2023-01-15T12:02:00.847Z,96490.41
2023-01-15T12:04:40.665Z,96506.88
2023-01-15T12:07:18.527Z,96485.97
2023-01-15T12:10:41.473Z,96506.69
2023-01-15T12:13:25.882Z,96496.28
2023-01-15T12:16:10.781Z,96474.38
2023-01-15T12:18:58.975Z,96492.16
2023-01-15T12:22:11.688Z,96492.16
2023-01-15T12:25:23.783Z,96478.44
2023-01-15T12:28:01.828Z,96490.44
2023-01-15T12:30:43.760Z,96502.78
2023-01-15T12:33:24.101Z,96483.06
2023-01-15T12:36:00.489Z,96475.75
2023-01-15T12:38:49.429Z,96485.47
2023-01-15T12:41:26.379Z,96486.63
2023-01-15T12:44:14.102Z,96479.00
2023-01-15T12:46:47.415Z,96486.94
2023-01-15T12:49:34.438Z,96506.44
2023-01-15T12:52:11.195Z,96501.22
2023-01-15T12:54:52.666Z,96505.75
2023-01-15T12:57:34.927Z,96485.66
2023-01-15T13:00:15.474Z,96506.47
2023-01-15T13:03:06.712Z,96493.47
2023-01-15T13:05:43.203Z,96487.03
2023-01-15T13:08:20.890Z,96491.84
2023-01-15T13:10:56.025Z,96484.16
2023-01-15T13:13:28.997Z,96493.91
2023-01-15T13:16:15.950Z,96495.16
2023-01-15T13:19:00.575Z,96498.75
2023-01-15T13:21:34.736Z,96495.91
2023-01-15T13:24:39.157Z,96502.56
2023-01-15T13:27:43.352Z,96492.47
2023-01-15T13:30:36.921Z,96498.22
2023-01-15T13:33:22.173Z,96504.31
2023-01-15T13:35:57.812Z,96494.50
2023-01-15T13:38:31.306Z,96503.69
2023-01-15T13:41:01.773Z,96498.22
2023-01-15T13:43:39.646Z,96493.94
2023-01-15T13:46:15.252Z,96500.84
2023-01-15T13:48:49.376Z,96497.84
2023-01-15T13:51:32.725Z,96497.53
2023-01-15T13:54:04.788Z,96501.91
2023-01-15T13:56:40.043Z,96491.66
2023-01-15T13:59:43.251Z,96493.38
2023-01-15T14:02:41.909Z,96500.94
2023-01-15T14:05:33.614Z,96511.69
2023-01-15T14:08:06.037Z,96508.56
2023-01-15T14:10:41.252Z,96515.75
2023-01-15T14:14:05.806Z,96532.72
2023-01-15T14:16:56.931Z,96531.56
2023-01-15T14:20:02.057Z,96554.59
2023-01-15T14:22:52.083Z,96534.31
2023-01-15T14:25:32.844Z,96528.75
2023-01-15T14:28:25.029Z,96547.38
2023-01-15T14:31:26.551Z,96532.13
2023-01-15T14:34:19.909Z,96542.25
2023-01-15T14:37:02.610Z,96569.25
2023-01-15T14:39:41.703Z,96573.22
2023-01-15T14:42:30.872Z,96582.34
2023-01-15T14:45:06.514Z,96582.06
2023-01-15T14:47:46.371Z,96570.56
2023-01-15T14:50:38.681Z,96580.34
2023-01-15T14:53:28.272Z,96597.28
2023-01-15T14:56:04.910Z,96615.38
2023-01-15T14:58:49.106Z,96608.34
2023-01-15T15:01:32.250Z,96605.72
2023-01-15T15:04:23.352Z,96625.31
2023-01-15T15:06:59.902Z,96630.25
2023-01-15T15:09:39.701Z,96629.78
2023-01-15T15:12:38.577Z,96638.59
2023-01-15T15:15:15.472Z,96641.81
2023-01-15T15:17:59.400Z,96654.78
2023-01-15T15:20:47.856Z,96647.28
2023-01-15T15:23:29.563Z,96643.75
2023-01-15T15:26:01.842Z,96653.53
2023-01-15T15:28:32.370Z,96658.75
2023-01-15T15:31:04.211Z,96661.47
2023-01-15T15:33:42.303Z,96674.91
2023-01-15T15:36:13.107Z,96683.91
2023-01-15T15:38:55.993Z,96671.28
2023-01-15T15:41:41.933Z,96678.28
2023-01-15T15:44:32.209Z,96697.84
2023-01-15T15:47:14.931Z,96679.28
2023-01-15T15:49:45.417Z,96671.94
2023-01-15T15:52:25.964Z,96679.31
2023-01-15T15:55:07.953Z,96663.31
2023-01-15T15:57:38.693Z,96665.28
2023-01-15T16:00:22.757Z,96672.03
2023-01-15T16:02:53.387Z,96670.69
2023-01-15T16:05:27.117Z,96661.41
2023-01-15T16:07:58.712Z,96671.28
2023-01-15T16:10:35.291Z,96670.41
2023-01-15T16:13:10.907Z,96677.41
2023-01-15T16:15:44.273Z,96681.06
2023-01-15T16:18:26.385Z,96671.16
2023-01-15T16:20:59.948Z,96693.69
2023-01-15T16:23:33.298Z,96689.13
2023-01-15T16:26:15.311Z,96691.28
2023-01-15T16:28:50.710Z,96695.06
2023-01-15T16:31:23.102Z,96693.06
2023-01-15T16:33:58.704Z,96702.53
2023-01-15T16:36:32.019Z,96701.47
2023-01-15T16:39:02.742Z,96710.47
2023-01-15T16:41:42.538Z,96709.53
2023-01-15T16:44:29.959Z,96708.91
2023-01-15T16:47:04.013Z,96718.66
2023-01-15T16:49:36.480Z,96718.66
2023-01-15T16:52:47.109Z,96734.94
2023-01-15T16:55:47.906Z,96712.72
2023-01-15T16:58:37.211Z,96716.38
2023-01-15T17:01:35.690Z,96706.50
2023-01-15T17:04:07.385Z,96708.63
2023-01-15T17:06:37.738Z,96724.91
2023-01-15T17:09:17.539Z,96710.47
2023-01-15T17:11:53.818Z,96701.16
2023-01-15T17:14:26.769Z,96711.66
2023-01-15T17:17:28.339Z,96708.91
2023-01-15T17:19:59.805Z,96713.19
2023-01-15T17:22:33.239Z,96722.31
2023-01-15T17:25:24.833Z,96710.16
2023-01-15T17:27:57.110Z,96719.88
2023-01-15T17:30:31.242Z,96713.78
2023-01-15T17:33:02.151Z,96719.56
2023-01-15T17:35:35.175Z,96727.78
2023-01-15T17:38:06.844Z,96714.09
2023-01-15T17:40:40.421Z,96712.44
2023-01-15T17:43:12.328Z,96718.66
2023-01-15T17:45:42.753Z,96714.56
2023-01-15T17:48:13.644Z,96725.66
2023-01-15T17:50:44.140Z,96722.31
2023-01-15T17:53:14.516Z,96730.84
2023-01-15T17:55:59.768Z,96727.50
2023-01-15T17:58:42.563Z,96716.06
2023-01-15T18:01:34.607Z,96718.03
2023-01-15T18:04:18.402Z,96717.75
2023-01-15T18:06:53.783Z,96720.78
2023-01-15T18:09:26.275Z,96718.97
2023-01-15T18:11:59.222Z,96722.31
2023-01-15T18:14:29.582Z,96716.69
2023-01-15T18:16:59.896Z,96714.84
2023-01-15T18:19:30.278Z,96734.22
2023-01-15T18:22:00.606Z,96722.03
2023-01-15T18:24:30.927Z,96718.22
2023-01-15T18:27:03.899Z,96723.22
2023-01-15T18:29:38.631Z,96708.31
2023-01-15T18:32:09.761Z,96705.59
2023-01-15T18:34:40.338Z,96704.97
2023-01-15T18:37:10.922Z,96709.53
2023-01-15T18:39:41.633Z,96711.06
2023-01-15T18:42:27.904Z,96721.28
2023-01-15T18:45:10.592Z,96721.09
2023-01-15T18:47:41.266Z,96725.69
2023-01-15T18:50:13.924Z,96708.47
2023-01-15T18:52:53.392Z,96709.25
2023-01-15T18:55:26.178Z,96711.34
2023-01-15T18:58:00.143Z,96707.09
2023-01-15T19:00:30.647Z,96705.88
2023-01-15T19:03:01.091Z,96702.84
2023-01-15T19:05:31.416Z,96695.53
2023-01-15T19:08:01.809Z,96702.38
2023-01-15T19:10:32.389Z,96713.34
2023-01-15T19:13:05.687Z,96697.06
2023-01-15T19:15:48.477Z,96692.78
2023-01-15T19:18:31.271Z,96691.13
2023-01-15T19:21:01.599Z,96696.00
2023-01-15T19:23:31.874Z,96694.91
2023-01-15T19:26:02.373Z,96694.59
2023-01-15T19:28:35.947Z,96696.13
2023-01-15T19:31:23.535Z,96692.94
2023-01-15T19:34:13.237Z,96673.91
2023-01-15T19:36:47.338Z,96694.59
2023-01-15T19:39:17.887Z,96686.06
2023-01-15T19:42:00.619Z,96682.72
2023-01-15T19:44:45.994Z,96698.25
2023-01-15T19:47:30.248Z,96695.19
2023-01-15T19:50:13.055Z,96685.47
2023-01-15T19:52:43.348Z,96674.81
2023-01-15T19:55:15.280Z,96692.78
2023-01-15T19:57:48.835Z,96677.09
2023-01-15T20:00:24.341Z,96684.88
2023-01-15T20:02:54.898Z,96680.00
2023-01-15T20:05:27.526Z,96678.75
2023-01-15T20:07:58.095Z,96705.88
2023-01-15T20:10:31.931Z,96688.06
2023-01-15T20:13:23.426Z,96686.06
2023-01-15T20:15:56.375Z,96689.44
2023-01-15T20:18:26.697Z,96694.91
2023-01-15T20:20:58.326Z,96681.34
2023-01-15T20:23:28.998Z,96670.41
2023-01-15T20:26:04.802Z,96666.56
2023-01-15T20:28:36.063Z,96684.09
2023-01-15T20:31:09.802Z,96651.34
2023-01-15T20:33:40.151Z,96656.53
2023-01-15T20:36:12.108Z,96661.25
2023-01-15T20:38:42.397Z,96659.75
2023-01-15T20:41:26.567Z,96657.13
2023-01-15T20:44:09.439Z,96660.81
2023-01-15T20:46:42.451Z,96649.22
2023-01-15T20:49:25.451Z,96643.28
2023-01-15T20:51:55.996Z,96632.47
2023-01-15T20:54:28.291Z,96643.44
2023-01-15T20:56:58.715Z,96642.81
2023-01-15T20:59:29.186Z,96641.91
2023-01-15T21:02:02.252Z,96639.16
2023-01-15T21:04:32.940Z,96651.19
2023-01-15T21:07:03.295Z,96635.69
2023-01-15T21:09:33.691Z,96631.09
2023-01-15T21:12:04.019Z,96641.63
2023-01-15T21:14:34.532Z,96633.41
2023-01-15T21:17:07.525Z,96639.19
2023-01-15T21:19:37.934Z,96645.56
2023-01-15T21:22:08.378Z,96625.50
2023-01-15T21:24:38.834Z,96621.50
2023-01-15T21:27:09.229Z,96613.88
2023-01-15T21:29:39.643Z,96616.78
2023-01-15T21:32:14.904Z,96612.81
2023-01-15T21:34:45.656Z,96610.72
2023-01-15T21:37:16.408Z,96606.28
2023-01-15T21:39:46.900Z,96628.06
2023-01-15T21:42:33.126Z,96596.25
2023-01-15T21:45:04.852Z,96594.13
2023-01-15T21:47:41.488Z,96597.91
2023-01-15T21:50:13.455Z,96611.34
2023-01-15T21:52:43.893Z,96587.25
2023-01-15T21:55:14.297Z,96593.19
2023-01-15T21:57:44.863Z,96591.66
2023-01-15T22:00:17.242Z,96609.31
2023-01-15T22:02:50.425Z,96604.78
2023-01-15T22:05:20.867Z,96626.09
2023-01-15T22:07:51.331Z,96593.06
2023-01-15T22:10:21.885Z,96600.78
2023-01-15T22:12:52.328Z,96597.16
2023-01-15T22:15:22.738Z,96599.59
2023-01-15T22:17:57.480Z,96594.13
2023-01-15T22:20:27.949Z,96599.44
2023-01-15T22:22:58.503Z,96579.66
2023-01-15T22:25:28.903Z,96589.69
2023-01-15T22:27:59.672Z,96598.22
2023-01-15T22:30:30.228Z,96597.75
2023-01-15T22:33:03.307Z,96595.00
2023-01-15T22:35:33.598Z,96591.34
2023-01-15T22:38:03.910Z,96586.19
2023-01-15T22:40:34.537Z,96591.94
2023-01-15T22:43:04.917Z,96604.91
2023-01-15T22:45:35.317Z,96597.16
2023-01-15T22:48:11.229Z,96579.78
2023-01-15T22:50:41.618Z,96597.72
2023-01-15T22:53:11.967Z,96598.03
2023-01-15T22:55:42.289Z,96604.75
2023-01-15T22:58:12.645Z,96605.38
2023-01-15T23:00:43.029Z,96616.34
2023-01-15T23:03:17.342Z,96606.72
2023-01-15T23:05:47.668Z,96606.72
2023-01-15T23:08:18.376Z,96609.88
2023-01-15T23:10:51.227Z,96610.31
2023-01-15T23:13:21.596Z,96621.41
2023-01-15T23:16:00.572Z,96618.53
2023-01-15T23:18:34.875Z,96608.31
2023-01-15T23:21:10.405Z,96611.31
2023-01-15T23:23:41.534Z,96607.38
2023-01-15T23:26:15.915Z,96607.00
2023-01-15T23:28:47.100Z,96601.88
2023-01-15T23:31:17.293Z,96604.41
2023-01-15T23:33:50.785Z,96609.00
2023-01-15T23:36:21.292Z,96598.25
2023-01-15T23:38:51.934Z,96591.81
2023-01-15T23:41:45.611Z,96592.28
2023-01-15T23:44:34.334Z,96580.56
2023-01-15T23:47:04.835Z,96571.59
2023-01-15T23:49:38.083Z,96573.25
2023-01-15T23:52:09.016Z,96581.78
2023-01-15T23:54:39.495Z,96553.75
2023-01-15T23:57:13.069Z,96558.91
2023-01-15T23:59:44.017Z,96551.88
